LTAT/MLX METAR and TAF weather

Enter ICAO airport designator
Station Type Date Time Source
LTAT METAR 2021/05/17 22:20 UTC NOAA

LTAT 172220Z 21004KT CAVOK 15/06 Q1012 NOSIG


Station Type Date Time Source
LTAT Decoded METAR 2021/05/17 22:20 UTC NOAA

Malatya / Erhac, Turkey (LTAT) 38-26N 038-05E 849M
May 17, 2021 - 06:20 PM EDT / 2021.05.17 2220 UTC
Wind: from the SSW (210 degrees) at 5 MPH (4 KT):0
Visibility: greater than 7 mile(s):0
Temperature: 59 F (15 C)
Dew Point: 42 F (6 C)
Relative Humidity: 54%
Pressure (altimeter): 29.88 in. Hg (1012 hPa)
ob: LTAT 172220Z 21004KT CAVOK 15/06 Q1012 NOSIG
cycle: 22

Station Type Date Time Source
LTAT TAF 2021/05/17 18:03 UTC NOAA

TAF LTAT 171640Z 1718/1818 21008KT 9999 FEW040
BECMG 1718/1720 CAVOK
BECMG 1806/1808 10011KT SCT040
BECMG 1811/1813 21017KT

Example: see airport list